Time;durP1;ratioP1;P1;durP2;ratioP2;P2;SDS_P1;SDS_P2;PMS_P1;PMS_P2;Temp;Humidity;BMP_temperature;BMP_pressure;BME280_temperature;BME280_humidity;BME280_pressure;Samples;Min_cycle;Max_cycle;Signal;HPM_P1;HPM_P2
2022/10/19 00:01:10;;;;;;;;;;;;;;;7.92;92.24;102825.22;4975764;28;20023;-84
2022/10/19 00:03:35;;;;;;;3.40;1.90;;;;;;;7.89;92.38;102813.09;4976131;28;19921;-84
2022/10/19 00:06:17;;;;;;;2.30;1.87;;;;;;;7.88;92.22;102816.53;4975838;28;20534;-84
2022/10/19 00:08:43;;;;;;;2.13;1.80;;;;;;;7.87;92.13;102815.66;4957392;28;20380;-84
2022/10/19 00:11:09;;;;;;;2.00;1.90;;;;;;;7.86;92.29;102811.31;4956518;29;20023;-84
2022/10/19 00:13:35;;;;;;;1.98;1.85;;;;;;;7.86;92.43;102810.44;4956980;29;20027;-84
2022/10/19 00:16:05;;;;;;;1.75;1.65;;;;;;;7.83;92.34;102813.81;4955965;29;20560;-84
2022/10/19 00:18:31;;;;;;;2.05;1.70;;;;;;;7.82;92.60;102817.22;4956661;29;20373;-84
2022/10/19 00:21:07;;;;;;;1.83;1.70;;;;;;;7.80;92.56;102815.44;4956322;29;20034;-84
2022/10/19 00:23:33;;;;;;;2.25;1.80;;;;;;;7.77;92.42;102808.47;4957612;28;20113;-83
2022/10/19 00:25:58;;;;;;;2.10;1.85;;;;;;;7.75;92.53;102815.31;4975620;28;20081;-84
2022/10/19 00:28:24;;;;;;;2.40;2.00;;;;;;;7.73;92.51;102816.97;4974829;28;20173;-83
2022/10/19 00:30:49;;;;;;;2.80;1.57;;;;;;;7.68;92.52;102806.50;4975561;28;20038;-84
2022/10/19 00:33:20;;;;;;;1.55;1.45;;;;;;;7.65;92.74;102803.84;4975875;28;20038;-84
2022/10/19 00:35:47;;;;;;;1.73;1.60;;;;;;;7.61;92.67;102796.81;4975303;28;20031;-83
2022/10/19 00:38:12;;;;;;;1.70;1.60;;;;;;;7.61;92.90;102789.06;4975375;28;20110;-84
2022/10/19 00:40:39;;;;;;;1.90;1.50;;;;;;;7.59;93.17;102790.75;4975409;28;20046;-84
2022/10/19 00:43:18;;;;;;;1.50;1.40;;;;;;;7.59;93.16;102793.34;4955494;28;20114;-84
2022/10/19 00:45:44;;;;;;;1.73;1.38;;;;;;;7.60;93.17;102791.63;4956356;29;20028;-84
2022/10/19 00:48:13;;;;;;;1.37;1.23;;;;;;;7.60;93.33;102794.19;4956001;29;20054;-83
2022/10/19 00:50:39;;;;;;;4.80;1.90;;;;;;;7.60;94.85;102796.78;4955348;29;20592;-84
2022/10/19 00:53:05;;;;;;;2.30;1.87;;;;;;;7.60;94.28;102800.22;4956056;29;20027;-84
2022/10/19 00:55:31;;;;;;;1.63;1.53;;;;;;;7.62;93.98;102802.88;4955667;29;20472;-83
2022/10/19 00:57:56;;;;;;;3.15;1.73;;;;;;;7.62;93.59;102803.72;4961074;28;20082;-84
2022/10/19 01:00:22;;;;;;;1.63;1.52;;;;;;;7.62;94.19;102805.47;4975240;28;20034;-84
2022/10/19 01:02:47;;;;;;;1.70;1.60;;;;;;;7.61;93.81;102806.28;4975459;28;20034;-84
2022/10/19 01:05:13;;;;;;;1.60;1.50;;;;;;;7.59;93.95;102803.66;4974186;28;20939;-84
2022/10/19 01:07:39;;;;;;;1.57;1.40;;;;;;;7.62;93.86;102808.03;4974760;28;20026;-84
2022/10/19 01:10:04;;;;;;;2.90;1.50;;;;;;;7.64;93.84;102803.81;4974411;28;20309;-84
2022/10/19 01:12:44;;;;;;;1.70;1.60;;;;;;;7.62;93.73;102798.56;4971863;28;20043;-84
2022/10/19 01:15:21;;;;;;;2.25;1.80;;;;;;;7.62;93.59;102798.56;4955368;29;20050;-84
2022/10/19 01:18:03;;;;;;;1.65;1.55;;;;;;;7.63;93.72;102794.28;4955284;29;20038;-84
2022/10/19 01:20:50;;;;;;;2.20;1.65;;;;;;;7.64;94.49;102793.47;4955890;29;20058;-84
2022/10/19 01:23:43;;;;;;;1.63;1.50;;;;;;;7.68;94.19;102796.16;4955582;29;20118;-84
2022/10/19 01:26:30;;;;;;;2.47;1.80;;;;;;;7.69;94.64;102802.19;4954766;29;20058;-84
2022/10/19 01:29:13;;;;;;;1.70;1.60;;;;;;;7.69;94.49;102804.78;4961891;28;20114;-84
2022/10/19 01:31:54;;;;;;;2.08;1.60;;;;;;;7.71;94.48;102803.13;4974047;28;20109;-84
2022/10/19 01:34:45;;;;;;;2.38;1.70;;;;;;;7.71;94.32;102800.53;4974915;28;20042;-84
2022/10/19 01:37:19;;;;;;;1.85;1.63;;;;;;;7.70;94.46;102802.28;4973489;28;20054;-83
2022/10/19 01:40:04;;;;;;;1.60;1.50;;;;;;;7.68;94.25;102797.88;4973565;28;20376;-83
2022/10/19 01:42:39;;;;;;;1.65;1.55;;;;;;;7.64;94.12;102794.31;4972796;28;20106;-84
2022/10/19 01:45:20;;;;;;;1.40;1.30;;;;;;;7.62;94.53;102792.53;4958482;28;20042;-84
2022/10/19 01:47:58;;;;;;;1.70;1.60;;;;;;;7.57;94.45;102792.41;4954721;29;20059;-84
2022/10/19 01:50:44;;;;;;;2.08;1.88;;;;;;;7.55;94.41;102794.06;4954789;29;20059;-84
2022/10/19 01:53:11;;;;;;;1.90;1.80;;;;;;;7.53;94.22;102790.56;4954320;29;20045;-84
2022/10/19 01:55:41;;;;;;;1.75;1.65;;;;;;;7.51;94.48;102793.09;4955110;29;20062;-84
2022/10/19 01:58:09;;;;;;;1.60;1.50;;;;;;;7.49;94.41;102794.75;4954804;28;20127;-84
2022/10/19 02:00:39;;;;;;;1.83;1.73;;;;;;;7.46;94.28;102799.84;4955696;28;20082;-84
2022/10/19 02:03:06;;;;;;;1.67;1.58;;;;;;;7.43;94.19;102789.41;4974153;28;20062;-84
2022/10/19 02:05:33;;;;;;;1.77;1.58;;;;;;;7.42;94.34;102777.34;4974001;28;20022;-84
2022/10/19 02:08:02;;;;;;;2.05;1.77;;;;;;;7.39;94.71;102775.53;4973311;28;20035;-83
2022/10/19 02:10:30;;;;;;;2.13;1.77;;;;;;;7.40;94.58;102774.69;4974230;28;20027;-84
2022/10/19 02:12:57;;;;;;;1.80;1.70;;;;;;;7.42;94.63;102772.19;4973960;28;20388;-84
2022/10/19 02:15:25;;;;;;;1.95;1.67;;;;;;;7.42;94.61;102773.03;4973605;28;20105;-84
2022/10/19 02:17:56;;;;;;;2.58;1.80;;;;;;;7.41;95.25;102760.94;4972729;28;20110;-84
2022/10/19 02:20:22;;;;;;;1.70;1.60;;;;;;;7.40;94.99;102755.75;4974272;28;20037;-84
2022/10/19 02:22:47;;;;;;;1.77;1.60;;;;;;;7.39;95.03;102757.44;4973524;28;20039;-84
2022/10/19 02:25:13;;;;;;;1.70;1.60;;;;;;;7.38;94.93;102753.09;4973860;28;20027;-84
2022/10/19 02:27:43;;;;;;;1.40;1.30;;;;;;;7.40;94.92;102756.63;4973958;28;20031;-83
2022/10/19 02:30:14;;;;;;;1.75;1.65;;;;;;;7.39;94.80;102741.09;4973216;28;20038;-84
2022/10/19 02:32:40;;;;;;;2.22;1.52;;;;;;;7.38;94.98;102745.34;4974135;28;20063;-84
2022/10/19 02:35:06;;;;;;;3.97;2.20;;;;;;;7.37;95.94;102732.41;4969087;28;20074;-84
2022/10/19 02:37:31;;;;;;;3.53;2.05;;;;;;;7.35;95.50;102731.47;4954570;29;20306;-84
2022/10/19 02:39:57;;;;;;;2.80;1.80;;;;;;;7.35;95.28;102739.22;4954486;29;20038;-85
2022/10/19 02:42:47;;;;;;;2.78;1.90;;;;;;;7.35;95.27;102732.38;4953938;29;20050;-84
2022/10/19 02:45:24;;;;;;;3.08;1.70;;;;;;;7.35;95.20;102728.91;4953478;29;20461;-84
2022/10/19 02:47:55;;;;;;;2.10;1.90;;;;;;;7.35;95.18;102739.22;4954323;29;20034;-84
2022/10/19 02:50:21;;;;;;;2.15;1.80;;;;;;;7.36;95.22;102735.81;4953617;29;20054;-84
2022/10/19 02:52:47;;;;;;;1.70;1.60;;;;;;;7.36;95.20;102735.81;4954446;28;20477;-84
2022/10/19 02:55:12;;;;;;;1.80;1.70;;;;;;;7.32;95.46;102721.94;4954109;29;20472;-84
2022/10/19 02:57:37;;;;;;;4.13;2.17;;;;;;;7.30;96.36;102728.78;4954658;28;20158;-84
2022/10/19 03:00:05;;;;;;;2.20;2.00;;;;;;;7.28;95.66;102737.31;4954201;29;20038;-85
2022/10/19 03:02:30;;;;;;;1.90;1.70;;;;;;;7.30;95.64;102733.06;4954230;29;20512;-84
2022/10/19 03:04:55;;;;;;;3.77;1.90;;;;;;;7.28;95.41;102730.44;4953452;29;20103;-84
2022/10/19 03:07:21;;;;;;;2.27;1.87;;;;;;;7.28;95.34;102734.75;4954283;29;20034;-84
2022/10/19 03:09:47;;;;;;;2.95;2.00;;;;;;;7.25;96.06;102731.22;4954393;29;20059;-84
2022/10/19 03:12:13;;;;;;;1.98;1.80;;;;;;;7.25;95.63;102733.81;4965854;28;20034;-84
2022/10/19 03:14:38;;;;;;;1.70;1.60;;;;;;;7.24;95.78;102734.63;4973427;28;20476;-84
2022/10/19 03:17:04;;;;;;;2.35;1.92;;;;;;;7.25;95.91;102738.13;4972805;28;20033;-83
2022/10/19 03:19:30;;;;;;;4.93;2.90;;;;;;;7.19;98.47;102732.75;4973190;28;20428;-84
2022/10/19 03:21:56;;;;;;;6.25;3.47;;;;;;;7.16;98.34;102724.91;4973035;28;20031;-84
2022/10/19 03:24:21;;;;;;;5.88;3.20;;;;;;;7.12;99.09;102729.13;4972620;28;20031;-84
2022/10/19 03:26:47;;;;;;;6.93;3.00;;;;;;;7.12;97.78;102731.69;4972484;28;20035;-84
2022/10/19 03:29:12;;;;;;;4.63;2.75;;;;;;;7.12;97.14;102729.13;4958960;28;20041;-84
2022/10/19 03:31:38;;;;;;;3.87;2.40;;;;;;;7.11;96.87;102727.34;4957111;29;20020;-85
2022/10/19 03:34:03;;;;;;;2.60;2.20;;;;;;;7.13;96.79;102724.84;4957049;29;20114;-83
2022/10/19 03:36:31;;;;;;;3.50;2.63;;;;;;;7.12;96.67;102723.94;4957556;29;20033;-84
2022/10/19 03:38:59;;;;;;;2.22;2.00;;;;;;;7.13;96.22;102724.84;4956726;29;20368;-84
2022/10/19 03:41:27;;;;;;;2.20;2.00;;;;;;;7.12;96.39;102721.38;4957542;29;20027;-84
2022/10/19 03:43:52;;;;;;;2.20;2.00;;;;;;;7.12;96.18;102721.38;4957259;29;20054;-84
2022/10/19 03:46:18;;;;;;;1.92;1.75;;;;;;;7.11;96.23;102730.84;4956786;28;20086;-85
2022/10/19 03:48:44;;;;;;;3.20;1.90;;;;;;;7.11;95.68;102720.50;4957219;29;20035;-85
2022/10/19 03:51:13;;;;;;;1.77;1.67;;;;;;;7.09;96.03;102732.50;4957027;29;20301;-86
2022/10/19 03:53:39;;;;;;;2.15;1.95;;;;;;;7.07;95.91;102731.56;4956759;29;20031;-85
2022/10/19 03:56:11;;;;;;;1.75;1.65;;;;;;;7.04;95.88;102736.63;4956983;29;20531;-85
2022/10/19 03:58:37;;;;;;;1.77;1.67;;;;;;;7.03;95.97;102734.91;4957465;29;20031;-85
2022/10/19 04:01:07;;;;;;;1.90;1.80;;;;;;;7.00;95.90;102729.63;4955755;29;20019;-85
2022/10/19 04:03:33;;;;;;;2.35;1.80;;;;;;;6.97;95.69;102734.69;4972753;28;20035;-85
2022/10/19 04:06:10;;;;;;;1.80;1.70;;;;;;;6.93;95.85;102738.91;4976319;28;20109;-85
2022/10/19 04:08:35;;;;;;;3.28;1.70;;;;;;;6.90;96.06;102738.78;4975832;28;20031;-85
2022/10/19 04:11:03;;;;;;;1.90;1.80;;;;;;;6.88;95.74;102735.28;4976003;28;20484;-85
2022/10/19 04:13:29;;;;;;;1.70;1.60;;;;;;;6.88;95.85;102748.19;4975609;28;20046;-85
2022/10/19 04:15:55;;;;;;;1.57;1.47;;;;;;;6.87;95.97;102743.84;4975971;28;20023;-85
2022/10/19 04:18:20;;;;;;;2.93;1.70;;;;;;;6.84;96.00;102742.91;4976043;28;20089;-85
2022/10/19 04:20:45;;;;;;;2.22;1.98;;;;;;;6.79;96.13;102732.44;4957820;28;20039;-85
2022/10/19 04:23:11;;;;;;;1.60;1.50;;;;;;;6.75;95.69;102731.47;4956614;29;20450;-85
2022/10/19 04:25:36;;;;;;;1.97;1.80;;;;;;;6.72;95.97;102725.34;4956823;29;20039;-86
2022/10/19 04:28:02;;;;;;;1.80;1.70;;;;;;;6.71;96.17;102723.59;4963386;28;20379;-85
2022/10/19 04:30:27;;;;;;;2.15;1.80;;;;;;;6.73;95.87;102725.38;4975798;28;20034;-85
2022/10/19 04:32:52;;;;;;;1.55;1.45;;;;;;;6.74;95.98;102729.72;4975451;28;20030;-85
2022/10/19 04:35:17;;;;;;;2.30;1.90;;;;;;;6.74;96.14;102724.56;4975424;28;20031;-85
2022/10/19 04:37:43;;;;;;;1.60;1.50;;;;;;;6.74;96.12;102729.72;4961322;28;20452;-85
2022/10/19 04:40:09;;;;;;;2.05;1.60;;;;;;;6.73;96.13;102725.38;4955731;28;20421;-85
2022/10/19 04:42:34;;;;;;;1.65;1.55;;;;;;;6.70;95.88;102717.53;4954895;29;20031;-85
2022/10/19 04:44:59;;;;;;;2.42;1.42;;;;;;;6.69;96.02;102720.97;4956267;29;20074;-85
2022/10/19 04:47:25;;;;;;;1.65;1.50;;;;;;;6.69;96.37;102717.50;4955903;28;20050;-85
2022/10/19 04:49:50;;;;;;;2.00;1.90;;;;;;;6.69;96.11;102727.81;4954746;29;20079;-85
2022/10/19 04:52:15;;;;;;;1.80;1.70;;;;;;;6.69;96.25;102726.13;4956031;29;20023;-85
2022/10/19 04:54:40;;;;;;;2.13;1.92;;;;;;;6.71;96.26;102731.31;4956047;28;20035;-85
2022/10/19 04:57:06;;;;;;;2.03;1.90;;;;;;;6.67;96.39;102726.88;4954934;29;20481;-85
2022/10/19 04:59:31;;;;;;;2.10;1.90;;;;;;;6.61;96.38;102723.31;4956066;29;20027;-85
2022/10/19 05:01:56;;;;;;;2.67;2.00;;;;;;;6.59;96.69;102724.06;4955563;29;20421;-86
2022/10/19 05:04:22;;;;;;;3.38;2.05;;;;;;;6.57;96.51;102726.59;4955541;29;20747;-85
2022/10/19 05:06:47;;;;;;;2.53;2.15;;;;;;;6.56;96.56;102719.69;4956059;29;20110;-85
2022/10/19 05:09:12;;;;;;;1.98;1.80;;;;;;;6.56;96.35;102723.97;4955586;29;20070;-85
2022/10/19 05:11:38;;;;;;;3.95;1.90;;;;;;;6.57;96.17;102724.03;4956461;28;20038;-85
2022/10/19 05:14:03;;;;;;;3.38;2.30;;;;;;;6.57;97.49;102724.03;4955227;29;20030;-85
2022/10/19 05:16:28;;;;;;;4.20;2.20;;;;;;;6.56;96.69;102730.00;4955614;29;20404;-85
2022/10/19 05:18:57;;;;;;;3.97;2.45;;;;;;;6.56;97.50;102722.28;4954770;29;20032;-85
2022/10/19 05:21:23;;;;;;;4.68;2.40;;;;;;;6.55;97.09;102720.50;4955768;29;20038;-85
2022/10/19 05:23:51;;;;;;;3.00;2.03;;;;;;;6.56;96.89;102718.81;4955031;29;20396;-85
2022/10/19 05:26:18;;;;;;;2.45;2.13;;;;;;;6.56;96.75;102706.78;4955175;29;20023;-85
2022/10/19 05:28:48;;;;;;;;;;;;;;;6.54;97.61;102711.03;4956744;28;20543;-85
2022/10/19 05:31:16;;;;;;;6.88;3.95;;;;;;;6.51;98.62;102721.25;4954788;29;19914;-86
2022/10/19 05:33:42;;;;;;;5.10;3.42;;;;;;;6.49;98.63;102708.28;4955549;29;20366;-85
2022/10/19 05:36:13;;;;;;;6.60;3.33;;;;;;;6.48;98.45;102703.97;4955277;29;20023;-85
2022/10/19 05:38:39;;;;;;;10.77;4.38;;;;;;;6.43;99.72;102697.81;4954816;29;20063;-85
2022/10/19 05:41:05;;;;;;;5.15;3.50;;;;;;;6.42;99.00;102693.47;4971499;28;20073;-83
2022/10/19 05:43:30;;;;;;;9.65;4.50;;;;;;;6.40;100.00;102696.84;4974486;28;20030;-84
2022/10/19 05:45:55;;;;;;;8.98;3.90;;;;;;;6.38;99.38;102696.75;4956125;28;20117;-84
2022/10/19 05:48:21;;;;;;;5.13;3.10;;;;;;;6.39;98.56;102695.06;4955065;29;20035;-84
2022/10/19 05:50:53;;;;;;;4.65;3.00;;;;;;;6.39;98.38;102695.94;4954692;29;20051;-84
2022/10/19 05:53:19;;;;;;;2.50;2.30;;;;;;;6.40;97.93;102696.84;4954481;28;20026;-84
2022/10/19 05:55:44;;;;;;;5.15;3.53;;;;;;;6.37;99.85;102695.00;4955219;29;20028;-84
2022/10/19 05:58:09;;;;;;;6.75;3.60;;;;;;;6.34;99.16;102693.22;4954268;29;20058;-84
2022/10/19 06:00:35;;;;;;;4.97;3.30;;;;;;;6.37;98.69;102694.16;4954388;28;20373;-84
2022/10/19 06:03:00;;;;;;;5.13;3.10;;;;;;;6.38;98.52;102701.91;4954652;29;20031;-84
2022/10/19 06:05:25;;;;;;;3.42;2.92;;;;;;;6.37;98.44;102700.16;4955194;29;20055;-85
2022/10/19 06:07:50;;;;;;;3.60;2.72;;;;;;;6.39;98.15;102700.22;4954200;29;20030;-84
2022/10/19 06:10:16;;;;;;;3.90;2.60;;;;;;;6.39;98.60;102697.66;4954869;29;20122;-83
2022/10/19 06:12:41;;;;;;;9.98;4.43;;;;;;;6.35;100.00;102696.69;4954736;29;20027;-83
2022/10/19 06:15:07;;;;;;;6.40;4.03;;;;;;;6.32;100.00;102689.72;4953788;29;20023;-83
2022/10/19 06:17:32;;;;;;;10.07;5.00;;;;;;;6.30;100.00;102680.19;4954524;29;20051;-83
2022/10/19 06:19:57;;;;;;;8.38;4.75;;;;;;;6.29;100.00;102678.41;4955072;28;20032;-82
2022/10/19 06:22:23;;;;;;;8.48;4.82;;;;;;;6.28;100.00;102685.28;4956040;28;20140;-83
2022/10/19 06:24:48;;;;;;;10.95;5.20;;;;;;;6.28;100.00;102676.66;4954744;29;20164;-83
2022/10/19 06:27:13;;;;;;;13.32;6.00;;;;;;;6.26;100.00;102678.31;4953813;29;20090;-83
2022/10/19 06:29:39;;;;;;;7.65;4.70;;;;;;;6.27;100.00;102688.69;4954835;29;20041;-83
2022/10/19 06:32:04;;;;;;;9.85;5.40;;;;;;;6.25;100.00;102682.59;4967214;28;20059;-83
2022/10/19 06:34:29;;;;;;;9.48;5.38;;;;;;;6.27;100.00;102683.53;4971718;28;20034;-83
2022/10/19 06:36:54;;;;;;;15.43;6.13;;;;;;;6.26;100.00;102679.22;4973622;28;20022;-83
2022/10/19 06:39:20;;;;;;;10.25;5.10;;;;;;;6.27;100.00;102683.53;4973861;28;20026;-83
2022/10/19 06:41:45;;;;;;;6.93;4.30;;;;;;;6.30;100.00;102690.50;4973295;28;20027;-83
2022/10/19 06:44:10;;;;;;;5.72;3.78;;;;;;;6.32;100.00;102692.28;4973517;28;20023;-83
2022/10/19 06:46:36;;;;;;;14.85;6.45;;;;;;;6.30;100.00;102687.91;4973563;28;20034;-83
2022/10/19 06:49:01;;;;;;;9.55;5.28;;;;;;;6.33;100.00;102695.75;4968803;28;20033;-84
2022/10/19 06:51:28;;;;;;;9.23;4.90;;;;;;;6.34;100.00;102700.94;4973098;28;20065;-84
2022/10/19 06:53:54;;;;;;;7.85;4.50;;;;;;;6.38;100.00;102698.47;4973078;28;20062;-85
2022/10/19 06:56:20;;;;;;;7.63;3.90;;;;;;;6.40;100.00;102699.41;4973028;28;20025;-85
2022/10/19 06:58:45;;;;;;;4.68;3.38;;;;;;;6.42;100.00;102696.03;4972675;28;20767;-85
2022/10/19 07:01:12;;;;;;;5.72;3.22;;;;;;;6.45;100.00;102693.56;4973232;28;20046;-85
2022/10/19 07:03:38;;;;;;;;;;;;;;;6.48;100.00;102692.78;4973395;28;20031;-85
2022/10/19 07:06:09;;;;;;;9.00;4.70;;;;;;;6.47;100.00;102697.03;4976943;28;19921;-85
2022/10/19 07:08:36;;;;;;;8.15;4.68;;;;;;;6.52;100.00;102698.91;4977207;28;20476;-85
2022/10/19 07:11:02;;;;;;;;;;;;;;;6.54;100.00;102690.38;4976665;28;20051;-86
2022/10/19 07:13:29;;;;;;;8.98;4.82;;;;;;;6.57;100.00;102694.78;4977037;28;19918;-85
2022/10/19 07:16:20;;;;;;;10.60;4.85;;;;;;;6.59;100.00;102687.94;4976057;28;20027;-85
2022/10/19 07:18:46;;;;;;;6.55;3.85;;;;;;;6.63;100.00;102693.28;4977218;28;20038;-85
2022/10/19 07:21:14;;;;;;;10.30;4.43;;;;;;;6.67;100.00;102701.09;4967444;28;20035;-85
2022/10/19 07:23:40;;;;;;;7.60;4.18;;;;;;;6.73;100.00;102703.88;4957780;29;20019;-88
2022/10/19 07:26:11;;;;;;;6.95;3.95;;;;;;;6.77;100.00;102703.13;4967678;28;20073;-87
2022/10/19 07:28:37;;;;;;;11.50;5.30;;;;;;;6.80;100.00;102708.38;4977739;28;20037;-89
2022/10/19 07:31:08;;;;;;;14.98;7.15;;;;;;;6.85;100.00;102705.94;4977501;28;20023;-88
2022/10/19 07:33:34;;;;;;;14.43;6.32;;;;;;;6.89;100.00;102706.06;4977655;28;20051;-90
2022/10/19 07:36:01;;;;;;;10.07;5.30;;;;;;;6.94;100.00;102709.69;4977826;28;20058;-89
2022/10/19 07:38:26;;;;;;;7.43;4.57;;;;;;;7.01;100.00;102703.00;4977172;28;20027;-89
2022/10/19 07:40:59;;;;;;;7.25;4.25;;;;;;;7.07;100.00;102703.16;4977878;28;20093;-90
2022/10/19 07:43:24;;;;;;;14.05;6.40;;;;;;;7.12;100.00;102700.72;4972772;28;20035;-91
2022/10/19 07:45:57;;;;;;;13.02;6.78;;;;;;;7.16;100.00;102692.22;4958202;29;20038;-91
2022/10/19 07:48:22;;;;;;;12.00;5.93;;;;;;;7.21;100.00;102689.78;4958575;29;20030;-90
2022/10/19 07:50:48;;;;;;;12.00;6.15;;;;;;;7.26;100.00;102689.06;4958267;29;20051;-88
2022/10/19 07:53:13;;;;;;;15.68;7.35;;;;;;;7.30;100.00;102684.88;4958191;29;20102;-95
2022/10/19 07:55:38;;;;;;;16.43;8.00;;;;;;;7.35;100.00;102678.13;4960273;29;20032;-95
2022/10/19 07:58:03;;;;;;;15.98;8.20;;;;;;;7.41;100.00;102678.28;4959089;29;20090;-96
2022/10/19 08:00:29;;;;;;;15.98;7.72;;;;;;;7.48;100.00;102671.59;4963596;29;20023;-88
2022/10/19 08:02:54;;;;;;;15.85;7.93;;;;;;;7.55;100.00;102673.47;4957687;29;20023;-88
2022/10/19 08:05:22;;;;;;;13.93;6.93;;;;;;;7.61;100.00;102674.50;4957431;29;20023;-87
2022/10/19 08:07:47;;;;;;;13.73;6.40;;;;;;;7.69;100.00;102671.28;4957218;29;20038;-87
2022/10/19 08:10:13;;;;;;;14.87;6.73;;;;;;;7.76;100.00;102668.84;4956737;29;20028;-87
2022/10/19 08:12:41;;;;;;;16.40;7.97;;;;;;;7.85;100.00;102669.97;4957082;28;20035;-85
2022/10/19 08:15:18;;;;;;;15.05;7.35;;;;;;;7.93;100.00;102667.59;4957367;28;20694;-91
2022/10/19 08:17:43;;;;;;;12.52;6.30;;;;;;;8.02;100.00;102666.91;4941046;29;20467;-90
2022/10/19 08:20:13;;;;;;;14.30;6.87;;;;;;;8.13;100.00;102675.81;4957785;29;20175;-93
2022/10/19 08:22:38;;;;;;;12.65;6.30;;;;;;;8.23;100.00;102676.03;4955782;29;20027;-91
2022/10/19 08:25:13;;;;;;;13.10;6.60;;;;;;;8.34;100.00;102682.34;4957524;29;20460;-87
2022/10/19 08:27:38;;;;;;;14.98;7.18;;;;;;;8.44;100.00;102675.66;4956676;29;20106;-87
2022/10/19 08:30:04;;;;;;;16.73;7.23;;;;;;;8.55;100.00;102669.06;4955815;29;20093;-87
2022/10/19 08:32:29;;;;;;;12.00;6.65;;;;;;;8.65;100.00;102665.84;4956972;29;20043;-86
2022/10/19 08:34:54;;;;;;;12.47;6.43;;;;;;;8.77;100.00;102660.06;4956033;29;20030;-86
2022/10/19 08:37:19;;;;;;;15.20;7.07;;;;;;;8.89;100.00;102656.00;4957720;28;20031;-85
2022/10/19 08:39:45;;;;;;;11.38;5.85;;;;;;;9.00;100.00;102644.13;4955835;29;20134;-87
2022/10/19 08:42:40;;;;;;;15.32;6.97;;;;;;;9.17;99.22;102643.56;4955375;28;20023;-86
2022/10/19 08:45:20;;;;;;;15.93;7.28;;;;;;;9.30;98.88;102648.16;4956146;29;20042;-85
2022/10/19 08:48:02;;;;;;;14.80;7.07;;;;;;;9.41;98.14;102633.69;4955797;29;20485;-85
2022/10/19 08:50:38;;;;;;;10.52;6.00;;;;;;;9.54;98.45;102634.78;4954811;29;20051;-85
2022/10/19 08:53:07;;;;;;;12.25;6.25;;;;;;;9.69;97.69;102630.72;4956038;29;20097;-86
2022/10/19 08:56:15;;;;;;;12.98;5.50;;;;;;;9.80;97.76;102629.16;4955489;29;20023;-85
2022/10/19 08:58:50;;;;;;;12.63;5.40;;;;;;;9.95;97.46;102638.91;4916618;29;20043;-87
2022/10/19 09:01:22;;;;;;;13.38;5.57;;;;;;;10.07;95.75;102637.38;4956431;29;20077;-87
2022/10/19 09:04:13;;;;;;;10.65;4.90;;;;;;;10.22;96.07;102629.81;4971532;28;20043;-87
2022/10/19 09:06:56;;;;;;;13.68;5.30;;;;;;;10.36;94.28;102633.47;4975939;28;20030;-87
2022/10/19 09:09:22;;;;;;;9.85;4.80;;;;;;;10.50;93.21;102625.03;4975190;28;20035;-91
2022/10/19 09:11:51;;;;;;;9.88;4.85;;;;;;;10.55;92.40;102626.00;4975499;28;20435;-91
2022/10/19 09:14:26;;;;;;;12.40;4.72;;;;;;;10.65;92.84;102621.78;4975565;28;20457;-86
2022/10/19 09:16:58;;;;;;;7.40;3.60;;;;;;;10.75;93.13;102622.78;4975313;28;20031;-87
2022/10/19 09:19:29;;;;;;;10.30;4.20;;;;;;;10.88;90.43;102623.78;4975994;28;20443;-89
2022/10/19 09:22:16;;;;;;;11.02;4.70;;;;;;;10.91;88.62;102616.03;4975575;28;20026;-89
2022/10/19 09:24:49;;;;;;;7.50;3.90;;;;;;;10.99;90.08;102621.34;4973775;28;20093;-87
2022/10/19 09:27:28;;;;;;;10.73;4.28;;;;;;;11.21;88.44;102631.09;4972581;28;20483;-89
2022/10/19 09:29:56;;;;;;;9.70;3.78;;;;;;;11.16;88.03;102634.50;4974240;28;20041;-87
2022/10/19 09:32:30;;;;;;;8.57;3.83;;;;;;;11.20;88.26;102637.16;4975618;28;20023;-88
2022/10/19 09:35:01;;;;;;;6.55;3.40;;;;;;;11.22;86.33;102638.06;4974845;28;20029;-82
2022/10/19 09:37:27;;;;;;;6.47;3.67;;;;;;;11.31;87.60;102642.50;4974597;28;20026;-85
2022/10/19 09:39:54;;;;;;;11.18;3.83;;;;;;;11.35;86.17;102631.25;4974426;28;20416;-85
2022/10/19 09:42:29;;;;;;;6.38;2.90;;;;;;;11.39;88.47;102629.53;4974665;28;20046;-84
2022/10/19 09:44:55;;;;;;;8.98;3.33;;;;;;;11.47;86.50;102621.81;4973532;28;20031;-83
2022/10/19 09:47:38;;;;;;;5.70;3.08;;;;;;;11.57;86.90;102618.44;4956134;28;20424;-87
2022/10/19 09:50:16;;;;;;;7.55;3.33;;;;;;;11.59;85.73;102612.44;4955109;29;20481;-88
2022/10/19 09:52:44;;;;;;;8.18;2.90;;;;;;;11.71;85.42;102615.97;4954901;29;20082;-85
2022/10/19 09:55:12;;;;;;;6.60;3.00;;;;;;;11.93;85.04;102629.16;4955367;29;20023;-88
2022/10/19 09:57:45;;;;;;;10.65;3.50;;;;;;;11.85;83.20;102619.56;4955672;29;20046;-88
2022/10/19 10:00:23;;;;;;;10.82;3.50;;;;;;;11.94;83.06;102610.97;4958545;28;20031;-87
2022/10/19 10:02:55;;;;;;;7.13;2.97;;;;;;;12.06;84.65;102602.38;4974333;28;20031;-89
2022/10/19 10:05:36;;;;;;;8.77;3.40;;;;;;;12.17;84.61;102594.66;4974692;28;20030;-89
2022/10/19 10:08:04;;;;;;;9.02;3.40;;;;;;;12.30;83.51;102593.00;4974466;28;20023;-88
2022/10/19 10:10:36;;;;;;;6.07;2.80;;;;;;;12.34;84.02;102593.00;4974396;28;20415;-87
2022/10/19 10:13:02;;;;;;;8.43;3.60;;;;;;;12.44;81.46;102587.88;4973707;28;20387;-88
2022/10/19 10:15:42;;;;;;;9.63;3.33;;;;;;;12.55;82.75;102577.50;4974523;28;20446;-87
2022/10/19 10:18:13;;;;;;;6.35;3.05;;;;;;;12.62;82.72;102574.94;4974547;28;20026;-88
2022/10/19 10:20:55;;;;;;;7.78;3.30;;;;;;;12.75;79.35;102582.78;4974527;28;20030;-89
2022/10/19 10:23:27;;;;;;;10.20;3.40;;;;;;;12.70;81.15;102582.78;4974952;28;20031;-88
2022/10/19 10:25:58;;;;;;;6.30;2.70;;;;;;;12.80;81.23;102587.16;4972207;28;20026;-88
2022/10/19 10:28:26;;;;;;;8.88;2.92;;;;;;;12.89;77.76;102586.28;4973329;28;20027;-90
2022/10/19 10:30:58;;;;;;;7.95;3.00;;;;;;;12.87;77.95;102587.16;4974130;28;20141;-86
2022/10/19 10:33:27;;;;;;;11.98;3.38;;;;;;;12.80;78.17;102581.94;4973982;28;20480;-88
2022/10/19 10:35:56;;;;;;;10.45;3.28;;;;;;;12.82;76.96;102574.13;4974583;28;20034;-87
2022/10/19 10:38:29;;;;;;;7.72;2.85;;;;;;;12.79;77.78;102574.09;4974294;28;20018;-88
2022/10/19 10:41:06;;;;;;;9.07;3.00;;;;;;;12.94;77.12;102568.94;4977523;28;20027;-87
2022/10/19 10:43:36;;;;;;;7.43;3.00;;;;;;;12.98;74.72;102575.91;4978424;28;20388;-88
2022/10/19 10:46:13;;;;;;;9.02;2.90;;;;;;;13.00;76.65;102567.22;4978107;28;20064;-89
2022/10/19 10:48:43;;;;;;;;;;;;;;;13.06;76.17;102562.88;4977854;28;20591;-87
2022/10/19 10:51:45;;;;;;;4.45;2.60;;;;;;;13.19;78.08;102566.38;4967512;28;19918;-90
2022/10/19 10:54:25;;;;;;;6.13;2.50;;;;;;;13.33;77.09;102560.31;4940678;29;20039;-89
2022/10/19 10:57:12;;;;;;;6.18;2.60;;;;;;;13.38;77.45;102556.84;4958048;29;20023;-89
2022/10/19 10:59:56;;;;;;;8.20;2.95;;;;;;;13.41;78.14;102551.66;4959000;29;20033;-88
2022/10/19 11:02:35;;;;;;;5.85;2.67;;;;;;;13.43;78.21;102543.84;4957983;29;20102;-88
2022/10/19 11:05:32;;;;;;;8.57;3.50;;;;;;;13.35;73.78;102535.09;4958587;29;20031;-88
2022/10/19 11:08:06;;;;;;;7.30;3.35;;;;;;;13.27;75.54;102537.72;4946803;29;20042;-88
2022/10/19 11:10:53;;;;;;;10.90;3.97;;;;;;;13.11;74.55;102532.47;4957911;29;20065;-89
2022/10/19 11:13:50;;;;;;;7.82;3.50;;;;;;;13.18;75.11;102530.75;4958738;29;20029;-87
2022/10/19 11:16:20;;;;;;;10.07;3.40;;;;;;;13.18;75.68;102528.16;4957990;29;20102;-87
2022/10/19 11:18:51;;;;;;;10.48;3.40;;;;;;;13.23;74.77;102528.16;4958232;29;20035;-88
2022/10/19 11:21:40;;;;;;;8.88;3.30;;;;;;;13.28;75.04;102527.28;4958266;29;20134;-87
2022/10/19 11:24:17;;;;;;;5.10;2.88;;;;;;;13.33;75.94;102518.59;4957330;29;20036;-88
2022/10/19 11:26:55;;;;;;;7.63;2.80;;;;;;;13.39;74.62;102519.50;4958229;29;20110;-88
2022/10/19 11:29:38;;;;;;;7.80;2.80;;;;;;;13.48;74.89;102510.78;4957909;29;20042;-87
2022/10/19 11:32:13;;;;;;;5.72;3.03;;;;;;;13.56;74.75;102505.56;4957961;29;20035;-88
2022/10/19 11:35:10;;;;;;;5.13;2.80;;;;;;;13.57;75.04;102505.56;4957638;29;20027;-88
2022/10/19 11:37:53;;;;;;;9.07;3.22;;;;;;;13.59;74.38;102489.91;4957169;29;20035;-87
2022/10/19 11:40:39;;;;;;;8.10;3.30;;;;;;;13.52;70.84;102489.06;4957899;29;20027;-88
2022/10/19 11:43:21;;;;;;;9.23;3.83;;;;;;;13.47;70.38;102488.19;4957871;29;20019;-88